createdAt,value
2016-12-23T00:00:05.078Z,66.33
2016-12-23T00:05:05.212Z,66.42
2016-12-23T00:10:04.586Z,66.52
2016-12-23T00:15:05.270Z,66.71
2016-12-23T00:20:04.683Z,67.08
2016-12-23T00:25:04.845Z,67.37
2016-12-23T00:30:05.005Z,67.85
2016-12-23T00:35:05.524Z,67.52
2016-12-23T00:40:05.204Z,67.14
2016-12-23T00:45:04.872Z,67.05
2016-12-23T00:50:04.945Z,67.43
2016-12-23T00:55:05.214Z,67.05
2016-12-23T01:00:05.221Z,66.67
2016-12-23T01:05:04.651Z,66.67
2016-12-23T01:10:05.211Z,66.1
2016-12-23T01:15:04.613Z,65.88
2016-12-23T01:20:05.061Z,65.59
2016-12-23T01:25:04.526Z,65.22
2016-12-23T01:30:04.853Z,64.93
2016-12-23T01:35:04.958Z,64.17
2016-12-23T01:40:05.228Z,63.6
2016-12-23T01:45:05.173Z,62.56
2016-12-23T01:50:04.682Z,62.37
2016-12-23T01:55:04.904Z,62.37
2016-12-23T02:00:05.371Z,61.52
2016-12-23T02:05:04.889Z,61.61
2016-12-23T02:10:04.470Z,61.14
2016-12-23T02:15:05.067Z,60.86
2016-12-23T02:20:04.984Z,60.86
2016-12-23T02:25:04.532Z,60.57
2016-12-23T02:30:04.964Z,60.38
2016-12-23T02:35:05.189Z,60.19
2016-12-23T02:40:04.836Z,60.47
2016-12-23T02:45:05.340Z,59.81
2016-12-23T02:50:05.328Z,59.53
2016-12-23T02:55:05.409Z,59.91
2016-12-23T03:00:05.185Z,60.1
2016-12-23T03:05:04.480Z,60.1
2016-12-23T03:10:04.458Z,60.28
2016-12-23T03:15:04.897Z,60.38
2016-12-23T03:20:04.961Z,60.47
2016-12-23T03:25:04.330Z,60.1
2016-12-23T03:30:04.895Z,60.28
2016-12-23T03:35:05.386Z,60.1
2016-12-23T03:40:05.015Z,60.28
2016-12-23T03:45:05.268Z,60.67
2016-12-23T03:50:04.595Z,60.67
2016-12-23T03:55:05.189Z,60.67
2016-12-23T04:00:05.050Z,60.47
2016-12-23T04:05:05.292Z,60.47
2016-12-23T04:10:04.683Z,60.57
2016-12-23T04:15:05.012Z,60.67
2016-12-23T04:20:05.039Z,60.57
2016-12-23T04:25:04.391Z,60.57
2016-12-23T04:30:05.010Z,60.57
2016-12-23T04:35:04.550Z,60.86
2016-12-23T04:40:04.427Z,60.67
2016-12-23T04:45:04.662Z,60.76
2016-12-23T04:50:04.994Z,61.05
2016-12-23T04:55:04.748Z,61.05
2016-12-23T05:00:04.987Z,60.95
2016-12-23T05:05:05.442Z,60.86
2016-12-23T05:10:05.259Z,60.95
2016-12-23T05:15:04.893Z,61.33
2016-12-23T05:20:04.743Z,61.24
2016-12-23T05:25:04.392Z,60.95
2016-12-23T05:30:05.181Z,60.86
2016-12-23T05:35:04.395Z,60.95
2016-12-23T05:40:05.004Z,60.95
2016-12-23T05:45:04.455Z,61.05
2016-12-23T05:50:04.757Z,61.05
2016-12-23T05:55:04.987Z,60.95
2016-12-23T06:00:05.303Z,61.14
2016-12-23T06:05:04.650Z,61.14
2016-12-23T06:10:05.436Z,61.24
2016-12-23T06:15:04.971Z,61.24
2016-12-23T06:20:04.720Z,61.43
2016-12-23T06:25:05.094Z,61.71
2016-12-23T06:30:05.432Z,61.52
2016-12-23T06:35:05.191Z,61.24
2016-12-23T06:40:04.653Z,61.24
2016-12-23T06:45:04.849Z,61.14
2016-12-23T06:50:05.421Z,61.4
2016-12-23T06:55:04.470Z,61.3
2016-12-23T07:00:04.490Z,61.21
2016-12-23T07:05:05.299Z,61.58
2016-12-23T07:10:04.994Z,61.49
2016-12-23T07:15:05.202Z,61.49
2016-12-23T07:20:04.459Z,60.92
2016-12-23T07:25:04.747Z,60.64
2016-12-23T07:30:05.258Z,60.64
2016-12-23T07:35:04.524Z,60.44
2016-12-23T07:40:05.025Z,60.73
2016-12-23T07:45:04.419Z,60.44
2016-12-23T07:50:04.634Z,60.64
2016-12-23T07:55:04.614Z,60.44
2016-12-23T08:00:04.412Z,60.54
2016-12-23T08:05:04.572Z,60.54
2016-12-23T08:10:04.590Z,60.35
2016-12-23T08:15:04.755Z,60.35
2016-12-23T08:20:04.877Z,60.28
2016-12-23T08:25:05.286Z,60.1
2016-12-23T08:30:05.278Z,60.19
2016-12-23T08:35:04.497Z,60.19
2016-12-23T08:40:04.813Z,60.28
2016-12-23T08:45:04.405Z,60.47
2016-12-23T08:50:04.974Z,61.14
2016-12-23T08:55:05.087Z,61.43
2016-12-23T09:00:04.681Z,61.9
2016-12-23T09:05:05.204Z,62.47
2016-12-23T09:10:04.906Z,63.04
2016-12-23T09:15:04.813Z,63.64
2016-12-23T09:20:05.204Z,65.53
2016-12-23T09:25:05.066Z,66.29
2016-12-23T09:30:04.434Z,66.39
2016-12-23T09:35:05.249Z,69.13
2016-12-23T09:40:05.237Z,69.23
2016-12-23T09:45:05.344Z,68.29
2016-12-23T09:50:04.687Z,69.61
2016-12-23T09:55:04.879Z,68.57
2016-12-23T10:00:04.932Z,68.76
2016-12-23T10:05:05.376Z,69.08
2016-12-23T10:10:05.300Z,70.03
2016-12-23T10:15:05.198Z,70.59
2016-12-23T10:20:04.618Z,72.68
2016-12-23T10:25:04.677Z,74.58
2016-12-23T10:30:04.756Z,78.42
2016-12-23T10:35:04.626Z,78.42
2016-12-23T10:40:05.145Z,86.01
2016-12-23T10:45:04.318Z,85.16
2016-12-23T10:50:04.507Z,84.01
2016-12-23T10:55:05.063Z,84.4
2016-12-23T11:00:04.807Z,83.26
2016-12-23T11:05:04.781Z,81.93
2016-12-23T11:10:04.833Z,82.31
2016-12-23T11:15:05.062Z,83.3
2016-12-23T11:20:05.025Z,91.8
2016-12-23T11:25:05.302Z,99.99
2016-12-23T11:30:05.113Z,99.99
2016-12-23T11:35:05.151Z,99.99
2016-12-23T11:40:04.904Z,99.99
2016-12-23T11:45:04.467Z,98.64
2016-12-23T11:50:04.522Z,97.97
2016-12-23T11:55:05.032Z,97.31
2016-12-23T12:00:04.954Z,97.69
2016-12-23T12:05:04.858Z,99.99
2016-12-23T12:10:04.886Z,99.99
2016-12-23T12:15:04.721Z,99.99
2016-12-23T12:20:04.508Z,99.99
2016-12-23T12:25:05.107Z,99.99
2016-12-23T12:30:05.206Z,99.99
2016-12-23T12:35:05.163Z,99.99
2016-12-23T12:40:05.182Z,99.99
2016-12-23T12:45:04.742Z,99.99
2016-12-23T12:50:04.424Z,99.99
2016-12-23T12:55:04.456Z,99.99
2016-12-23T13:00:04.684Z,99.99
2016-12-23T13:05:05.089Z,99.99
2016-12-23T13:10:04.886Z,99.99
2016-12-23T13:15:05.280Z,99.99
2016-12-23T13:20:04.704Z,99.99
2016-12-23T13:25:05.135Z,99.99
2016-12-23T13:30:04.895Z,99.99
2016-12-23T13:35:05.068Z,99.99
2016-12-23T13:40:05.336Z,99.99
2016-12-23T13:45:05.409Z,99.99
2016-12-23T13:50:04.430Z,99.99
2016-12-23T13:55:04.282Z,99.99
2016-12-23T14:00:05.186Z,99.99
2016-12-23T14:05:05.237Z,99.99
2016-12-23T14:10:05.160Z,99.99
2016-12-23T14:15:04.656Z,99.99
2016-12-23T14:20:04.655Z,99.99
2016-12-23T14:25:04.465Z,99.99
2016-12-23T14:30:04.467Z,99.99
2016-12-23T14:35:05.243Z,99.99
2016-12-23T14:40:05.037Z,99.99
2016-12-23T14:45:04.970Z,99.99
2016-12-23T14:50:05.117Z,99.99
2016-12-23T14:55:04.626Z,99.99
2016-12-23T15:00:04.894Z,99.99
2016-12-23T15:05:04.725Z,99.99
2016-12-23T15:10:05.013Z,99.99
2016-12-23T15:15:04.924Z,99.99
2016-12-23T15:20:04.978Z,99.99
2016-12-23T15:25:04.961Z,99.99
2016-12-23T15:30:04.342Z,99.99
2016-12-23T15:35:04.975Z,99.99
2016-12-23T15:40:05.030Z,99.99
2016-12-23T15:45:04.547Z,99.99
2016-12-23T15:50:04.425Z,99.99
2016-12-23T15:55:04.524Z,99.99
2016-12-23T16:00:04.814Z,99.99
2016-12-23T16:05:04.746Z,99.99
2016-12-23T16:10:04.631Z,99.99
2016-12-23T16:15:04.599Z,99.99
2016-12-23T16:20:05.360Z,99.99
2016-12-23T16:25:04.472Z,99.99
2016-12-23T16:30:05.328Z,99.99
2016-12-23T16:35:05.323Z,99.99
2016-12-23T16:40:05.054Z,99.99
2016-12-23T16:45:05.201Z,99.99
2016-12-23T16:50:05.202Z,99.99
2016-12-23T16:55:04.428Z,99.99
2016-12-23T17:00:05.512Z,99.99
2016-12-23T17:05:05.117Z,99.99
2016-12-23T17:10:04.627Z,99.99
2016-12-23T17:15:05.302Z,99.99
2016-12-23T17:20:04.675Z,99.99
2016-12-23T17:25:05.096Z,99.99
2016-12-23T17:30:04.736Z,99.99
2016-12-23T17:35:04.352Z,99.99
2016-12-23T17:40:04.976Z,99.99
2016-12-23T17:45:04.600Z,99.99
2016-12-23T17:50:04.731Z,99.99
2016-12-23T17:55:05.084Z,99.99
2016-12-23T18:00:04.752Z,99.99
2016-12-23T18:05:04.943Z,99.99
2016-12-23T18:10:04.696Z,99.99
2016-12-23T18:15:05.034Z,99.99
2016-12-23T18:20:05.290Z,99.99
2016-12-23T18:25:05.170Z,99.99
2016-12-23T18:30:05.140Z,99.99
2016-12-23T18:35:05.253Z,99.99
2016-12-23T18:40:05.101Z,99.99
2016-12-23T18:45:05.310Z,99.99
2016-12-23T18:50:04.687Z,99.99
2016-12-23T18:55:04.894Z,99.99
2016-12-23T19:00:04.722Z,99.99
2016-12-23T19:05:05.254Z,99.99
2016-12-23T19:10:05.176Z,99.99
2016-12-23T19:15:05.014Z,99.99
2016-12-23T19:20:04.975Z,99.99
2016-12-23T19:25:04.826Z,99.99
2016-12-23T19:30:04.542Z,99.99
2016-12-23T19:35:04.421Z,99.99
2016-12-23T19:40:05.382Z,99.99
2016-12-23T19:45:04.530Z,99.99
2016-12-23T19:50:04.469Z,99.99
2016-12-23T19:55:04.737Z,99.99
2016-12-23T20:00:04.467Z,99.99
2016-12-23T20:05:05.229Z,99.99
2016-12-23T20:10:04.534Z,99.99
2016-12-23T20:15:05.184Z,99.99
2016-12-23T20:20:05.012Z,99.99
2016-12-23T20:25:05.071Z,99.99
2016-12-23T20:30:04.582Z,99.99
2016-12-23T20:35:04.686Z,99.99
2016-12-23T20:40:05.217Z,99.99
2016-12-23T20:45:04.342Z,99.99
2016-12-23T20:50:04.501Z,99.99
2016-12-23T20:55:04.540Z,99.99
2016-12-23T21:00:04.556Z,99.99
2016-12-23T21:05:04.920Z,99.99
2016-12-23T21:10:04.757Z,99.99
2016-12-23T21:15:05.044Z,99.99
2016-12-23T21:20:05.221Z,99.99
2016-12-23T21:25:04.377Z,99.99
2016-12-23T21:30:04.875Z,99.99
2016-12-23T21:35:05.118Z,99.99
2016-12-23T21:40:04.951Z,99.99
2016-12-23T21:45:04.451Z,99.99
2016-12-23T21:50:04.804Z,99.99
2016-12-23T21:55:05.269Z,99.99
2016-12-23T22:00:04.551Z,99.99
2016-12-23T22:05:05.070Z,99.99
2016-12-23T22:10:04.529Z,99.99
2016-12-23T22:15:05.055Z,99.99
2016-12-23T22:20:04.962Z,99.99
2016-12-23T22:25:05.140Z,99.99
2016-12-23T22:30:04.832Z,99.99
2016-12-23T22:35:05.128Z,99.99
2016-12-23T22:40:05.086Z,99.99
2016-12-23T22:45:04.591Z,99.99
2016-12-23T22:50:05.162Z,99.99
2016-12-23T22:55:04.434Z,99.99
2016-12-23T23:00:04.943Z,99.99
2016-12-23T23:05:05.245Z,99.99
2016-12-23T23:10:04.874Z,99.99
2016-12-23T23:15:04.793Z,99.99
2016-12-23T23:20:04.650Z,99.99
2016-12-23T23:25:04.911Z,99.99
2016-12-23T23:30:05.210Z,99.99
2016-12-23T23:35:05.244Z,99.99
2016-12-23T23:40:05.100Z,99.99
2016-12-23T23:45:04.514Z,95.93
2016-12-23T23:50:04.724Z,93.46
2016-12-23T23:55:04.917Z,91.85
